sensor_id;sensor_type;location;lat;lon;timestamp;P1;durP1;ratioP1;P2;durP2;ratioP2
54143;SDS011;40050;47.324;18.792;2023-06-14T00:00:41;10.75;;;5.46;;
54143;SDS011;40050;47.324;18.792;2023-06-14T00:02:38;13.51;;;5.26;;
54143;SDS011;40050;47.324;18.792;2023-06-14T00:04:38;9.90;;;5.16;;
54143;SDS011;40050;47.324;18.792;2023-06-14T00:06:39;8.94;;;5.46;;
54143;SDS011;40050;47.324;18.792;2023-06-14T00:08:40;13.69;;;5.75;;
54143;SDS011;40050;47.324;18.792;2023-06-14T00:10:42;9.50;;;5.26;;
54143;SDS011;40050;47.324;18.792;2023-06-14T00:12:43;8.54;;;5.65;;
54143;SDS011;40050;47.324;18.792;2023-06-14T00:14:44;13.47;;;5.95;;
54143;SDS011;40050;47.324;18.792;2023-06-14T00:16:45;11.09;;;5.35;;
54143;SDS011;40050;47.324;18.792;2023-06-14T00:18:46;9.38;;;5.94;;
54143;SDS011;40050;47.324;18.792;2023-06-14T00:20:47;11.07;;;5.94;;
54143;SDS011;40050;47.324;18.792;2023-06-14T00:22:54;13.52;;;5.94;;
54143;SDS011;40050;47.324;18.792;2023-06-14T00:24:55;9.55;;;5.64;;
54143;SDS011;40050;47.324;18.792;2023-06-14T00:26:56;10.40;;;6.04;;
54143;SDS011;40050;47.324;18.792;2023-06-14T00:28:57;8.61;;;5.64;;
54143;SDS011;40050;47.324;18.792;2023-06-14T00:30:58;9.36;;;5.45;;
54143;SDS011;40050;47.324;18.792;2023-06-14T00:32:59;9.83;;;5.64;;
54143;SDS011;40050;47.324;18.792;2023-06-14T00:35:00;11.25;;;5.64;;
54143;SDS011;40050;47.324;18.792;2023-06-14T00:37:01;8.30;;;5.54;;
54143;SDS011;40050;47.324;18.792;2023-06-14T00:39:02;9.05;;;5.64;;
54143;SDS011;40050;47.324;18.792;2023-06-14T00:41:02;8.67;;;5.64;;
54143;SDS011;40050;47.324;18.792;2023-06-14T00:43:04;10.93;;;5.84;;
54143;SDS011;40050;47.324;18.792;2023-06-14T00:45:05;9.70;;;5.24;;
54143;SDS011;40050;47.324;18.792;2023-06-14T00:47:06;9.80;;;5.44;;
54143;SDS011;40050;47.324;18.792;2023-06-14T00:49:07;7.64;;;5.24;;
54143;SDS011;40050;47.324;18.792;2023-06-14T00:51:08;9.99;;;5.44;;
54143;SDS011;40050;47.324;18.792;2023-06-14T00:53:10;9.24;;;5.74;;
54143;SDS011;40050;47.324;18.792;2023-06-14T00:55:11;10.74;;;5.44;;
54143;SDS011;40050;47.324;18.792;2023-06-14T00:57:15;9.80;;;5.34;;
54143;SDS011;40050;47.324;18.792;2023-06-14T00:59:16;10.26;;;5.94;;
54143;SDS011;40050;47.324;18.792;2023-06-14T01:01:17;7.34;;;5.24;;
54143;SDS011;40050;47.324;18.792;2023-06-14T01:03:18;8.00;;;5.24;;
54143;SDS011;40050;47.324;18.792;2023-06-14T01:05:20;7.99;;;4.65;;
54143;SDS011;40050;47.324;18.792;2023-06-14T01:10:03;7.80;;;5.24;;
54143;SDS011;40050;47.324;18.792;2023-06-14T01:12:00;7.71;;;5.34;;
54143;SDS011;40050;47.324;18.792;2023-06-14T01:14:09;7.61;;;5.14;;
54143;SDS011;40050;47.324;18.792;2023-06-14T01:16:10;10.24;;;4.94;;
54143;SDS011;40050;47.324;18.792;2023-06-14T01:18:11;8.83;;;5.24;;
54143;SDS011;40050;47.324;18.792;2023-06-14T01:20:13;8.27;;;5.14;;
54143;SDS011;40050;47.324;18.792;2023-06-14T01:22:14;9.59;;;5.24;;
54143;SDS011;40050;47.324;18.792;2023-06-14T01:24:15;7.43;;;5.24;;
54143;SDS011;40050;47.324;18.792;2023-06-14T01:26:16;7.61;;;5.24;;
54143;SDS011;40050;47.324;18.792;2023-06-14T01:28:17;7.98;;;5.14;;
54143;SDS011;40050;47.324;18.792;2023-06-14T01:30:18;7.50;;;5.24;;
54143;SDS011;40050;47.324;18.792;2023-06-14T01:32:19;8.44;;;5.14;;
54143;SDS011;40050;47.324;18.792;2023-06-14T01:34:21;10.12;;;5.24;;
54143;SDS011;40050;47.324;18.792;2023-06-14T01:36:22;7.68;;;5.23;;
54143;SDS011;40050;47.324;18.792;2023-06-14T01:38:24;8.80;;;5.43;;
54143;SDS011;40050;47.324;18.792;2023-06-14T01:40:25;8.81;;;5.53;;
54143;SDS011;40050;47.324;18.792;2023-06-14T01:42:26;7.51;;;4.94;;
54143;SDS011;40050;47.324;18.792;2023-06-14T01:44:27;6.75;;;5.24;;
54143;SDS011;40050;47.324;18.792;2023-06-14T01:46:29;7.41;;;5.53;;
54143;SDS011;40050;47.324;18.792;2023-06-14T01:48:30;8.33;;;4.74;;
54143;SDS011;40050;47.324;18.792;2023-06-14T01:50:31;7.49;;;4.54;;
54143;SDS011;40050;47.324;18.792;2023-06-14T01:52:32;9.92;;;5.33;;
54143;SDS011;40050;47.324;18.792;2023-06-14T01:54:33;8.14;;;5.23;;
54143;SDS011;40050;47.324;18.792;2023-06-14T01:56:34;8.61;;;4.64;;
54143;SDS011;40050;47.324;18.792;2023-06-14T01:58:35;9.54;;;5.13;;
54143;SDS011;40050;47.324;18.792;2023-06-14T02:00:37;7.57;;;4.94;;
54143;SDS011;40050;47.324;18.792;2023-06-14T02:02:38;9.17;;;4.64;;
54143;SDS011;40050;47.324;18.792;2023-06-14T02:04:39;7.02;;;5.04;;
54143;SDS011;40050;47.324;18.792;2023-06-14T02:06:40;6.38;;;4.74;;
54143;SDS011;40050;47.324;18.792;2023-06-14T02:08:41;8.64;;;4.94;;
54143;SDS011;40050;47.324;18.792;2023-06-14T02:10:41;6.86;;;4.75;;
54143;SDS011;40050;47.324;18.792;2023-06-14T02:12:43;7.42;;;4.94;;
54143;SDS011;40050;47.324;18.792;2023-06-14T02:14:43;8.17;;;4.84;;
54143;SDS011;40050;47.324;18.792;2023-06-14T02:16:44;9.95;;;5.24;;
54143;SDS011;40050;47.324;18.792;2023-06-14T02:18:45;6.95;;;4.74;;
54143;SDS011;40050;47.324;18.792;2023-06-14T02:20:46;7.60;;;4.74;;
54143;SDS011;40050;47.324;18.792;2023-06-14T02:22:47;7.89;;;5.04;;
54143;SDS011;40050;47.324;18.792;2023-06-14T02:24:48;7.41;;;4.74;;
54143;SDS011;40050;47.324;18.792;2023-06-14T02:26:49;9.77;;;5.24;;
54143;SDS011;40050;47.324;18.792;2023-06-14T02:28:50;8.83;;;5.14;;
54143;SDS011;40050;47.324;18.792;2023-06-14T02:30:51;7.61;;;4.94;;
54143;SDS011;40050;47.324;18.792;2023-06-14T02:32:52;7.42;;;5.14;;
54143;SDS011;40050;47.324;18.792;2023-06-14T02:34:53;8.44;;;5.04;;
54143;SDS011;40050;47.324;18.792;2023-06-14T02:36:53;11.52;;;5.43;;
54143;SDS011;40050;47.324;18.792;2023-06-14T02:38:54;10.39;;;5.43;;
54143;SDS011;40050;47.324;18.792;2023-06-14T02:40:55;9.92;;;5.53;;
54143;SDS011;40050;47.324;18.792;2023-06-14T02:42:56;9.82;;;5.53;;
54143;SDS011;40050;47.324;18.792;2023-06-14T02:44:57;11.30;;;5.62;;
54143;SDS011;40050;47.324;18.792;2023-06-14T02:46:58;8.49;;;5.43;;
54143;SDS011;40050;47.324;18.792;2023-06-14T02:48:59;8.87;;;5.62;;
54143;SDS011;40050;47.324;18.792;2023-06-14T02:51:00;9.99;;;5.62;;
54143;SDS011;40050;47.324;18.792;2023-06-14T02:53:01;10.45;;;5.62;;
54143;SDS011;40050;47.324;18.792;2023-06-14T02:55:02;9.13;;;5.92;;
54143;SDS011;40050;47.324;18.792;2023-06-14T02:57:03;8.95;;;5.72;;
54143;SDS011;40050;47.324;18.792;2023-06-14T02:59:04;10.90;;;6.02;;
54143;SDS011;40050;47.324;18.792;2023-06-14T03:01:05;8.85;;;5.62;;
54143;SDS011;40050;47.324;18.792;2023-06-14T03:03:06;11.17;;;6.41;;
54143;SDS011;40050;47.324;18.792;2023-06-14T03:05:07;9.78;;;5.72;;
54143;SDS011;40050;47.324;18.792;2023-06-14T03:07:07;9.12;;;5.91;;
54143;SDS011;40050;47.324;18.792;2023-06-14T03:09:08;11.44;;;6.21;;
54143;SDS011;40050;47.324;18.792;2023-06-14T03:11:09;10.03;;;6.40;;
54143;SDS011;40050;47.324;18.792;2023-06-14T03:13:10;12.06;;;6.30;;
54143;SDS011;40050;47.324;18.792;2023-06-14T03:15:11;11.60;;;6.40;;
54143;SDS011;40050;47.324;18.792;2023-06-14T03:17:12;11.31;;;6.40;;
54143;SDS011;40050;47.324;18.792;2023-06-14T03:19:13;13.72;;;5.91;;
54143;SDS011;40050;47.324;18.792;2023-06-14T03:21:14;11.04;;;6.30;;
54143;SDS011;40050;47.324;18.792;2023-06-14T03:23:15;9.92;;;6.40;;
54143;SDS011;40050;47.324;18.792;2023-06-14T03:25:16;12.33;;;6.70;;
54143;SDS011;40050;47.324;18.792;2023-06-14T03:27:16;10.00;;;6.40;;
54143;SDS011;40050;47.324;18.792;2023-06-14T03:29:18;11.57;;;6.50;;
54143;SDS011;40050;47.324;18.792;2023-06-14T03:31:19;10.91;;;6.40;;
54143;SDS011;40050;47.324;18.792;2023-06-14T03:33:20;14.79;;;7.28;;
54143;SDS011;40050;47.324;18.792;2023-06-14T03:35:21;12.94;;;6.98;;
54143;SDS011;40050;47.324;18.792;2023-06-14T03:37:22;12.55;;;6.59;;
54143;SDS011;40050;47.324;18.792;2023-06-14T03:39:23;12.73;;;7.28;;
54143;SDS011;40050;47.324;18.792;2023-06-14T03:41:24;11.15;;;6.68;;
54143;SDS011;40050;47.324;18.792;2023-06-14T03:43:25;13.27;;;7.27;;
54143;SDS011;40050;47.324;18.792;2023-06-14T03:45:26;12.80;;;7.37;;
54143;SDS011;40050;47.324;18.792;2023-06-14T03:47:27;12.21;;;7.26;;
54143;SDS011;40050;47.324;18.792;2023-06-14T03:49:28;12.28;;;7.46;;
54143;SDS011;40050;47.324;18.792;2023-06-14T03:51:29;11.91;;;7.46;;
54143;SDS011;40050;47.324;18.792;2023-06-14T03:53:30;11.99;;;7.35;;
54143;SDS011;40050;47.324;18.792;2023-06-14T03:55:30;11.43;;;7.45;;
54143;SDS011;40050;47.324;18.792;2023-06-14T03:57:31;11.79;;;7.45;;
54143;SDS011;40050;47.324;18.792;2023-06-14T03:59:33;11.05;;;7.05;;
54143;SDS011;40050;47.324;18.792;2023-06-14T04:01:33;14.40;;;8.23;;
54143;SDS011;40050;47.324;18.792;2023-06-14T04:03:34;11.39;;;7.44;;
54143;SDS011;40050;47.324;18.792;2023-06-14T04:05:36;12.56;;;7.93;;
54143;SDS011;40050;47.324;18.792;2023-06-14T04:07:37;12.92;;;8.12;;
54143;SDS011;40050;47.324;18.792;2023-06-14T04:09:38;13.00;;;8.02;;
54143;SDS011;40050;47.324;18.792;2023-06-14T04:11:38;13.09;;;7.63;;
54143;SDS011;40050;47.324;18.792;2023-06-14T04:13:39;13.88;;;8.31;;
54143;SDS011;40050;47.324;18.792;2023-06-14T04:15:41;14.13;;;8.21;;
54143;SDS011;40050;47.324;18.792;2023-06-14T04:17:41;13.48;;;8.79;;
54143;SDS011;40050;47.324;18.792;2023-06-14T04:19:42;14.39;;;8.60;;
54143;SDS011;40050;47.324;18.792;2023-06-14T04:21:43;13.84;;;8.40;;
54143;SDS011;40050;47.324;18.792;2023-06-14T04:23:45;17.65;;;8.69;;
54143;SDS011;40050;47.324;18.792;2023-06-14T04:25:46;14.11;;;8.01;;
54143;SDS011;40050;47.324;18.792;2023-06-14T04:27:47;12.50;;;7.82;;
54143;SDS011;40050;47.324;18.792;2023-06-14T04:29:48;14.66;;;8.69;;
54143;SDS011;40050;47.324;18.792;2023-06-14T04:31:53;14.01;;;8.98;;
54143;SDS011;40050;47.324;18.792;2023-06-14T04:33:52;17.99;;;8.69;;
54143;SDS011;40050;47.324;18.792;2023-06-14T04:35:53;14.00;;;8.88;;
54143;SDS011;40050;47.324;18.792;2023-06-14T04:37:55;15.34;;;8.78;;
54143;SDS011;40050;47.324;18.792;2023-06-14T04:39:56;13.72;;;8.88;;
54143;SDS011;40050;47.324;18.792;2023-06-14T04:41:56;14.16;;;8.88;;
54143;SDS011;40050;47.324;18.792;2023-06-14T04:43:58;14.83;;;8.98;;
54143;SDS011;40050;47.324;18.792;2023-06-14T04:45:58;15.91;;;9.47;;
54143;SDS011;40050;47.324;18.792;2023-06-14T04:47:59;15.45;;;9.28;;
54143;SDS011;40050;47.324;18.792;2023-06-14T04:50:00;12.94;;;8.30;;
54143;SDS011;40050;47.324;18.792;2023-06-14T04:52:01;14.39;;;8.40;;
54143;SDS011;40050;47.324;18.792;2023-06-14T04:54:02;13.22;;;8.40;;
54143;SDS011;40050;47.324;18.792;2023-06-14T04:56:07;14.11;;;8.42;;
54143;SDS011;40050;47.324;18.792;2023-06-14T04:58:04;12.41;;;7.84;;
54143;SDS011;40050;47.324;18.792;2023-06-14T05:00:06;15.48;;;8.93;;
54143;SDS011;40050;47.324;18.792;2023-06-14T05:02:06;11.81;;;7.36;;
54143;SDS011;40050;47.324;18.792;2023-06-14T05:04:07;11.73;;;7.65;;
54143;SDS011;40050;47.324;18.792;2023-06-14T05:06:08;12.98;;;8.45;;
54143;SDS011;40050;47.324;18.792;2023-06-14T05:08:09;13.08;;;8.16;;
54143;SDS011;40050;47.324;18.792;2023-06-14T05:10:10;14.06;;;8.46;;
54143;SDS011;40050;47.324;18.792;2023-06-14T05:12:11;13.38;;;7.77;;
54143;SDS011;40050;47.324;18.792;2023-06-14T05:14:12;14.68;;;7.77;;
54143;SDS011;40050;47.324;18.792;2023-06-14T05:16:13;10.60;;;7.00;;
54143;SDS011;40050;47.324;18.792;2023-06-14T05:18:14;12.15;;;7.30;;
54143;SDS011;40050;47.324;18.792;2023-06-14T05:20:15;11.08;;;7.02;;
54143;SDS011;40050;47.324;18.792;2023-06-14T05:22:15;13.26;;;6.92;;
54143;SDS011;40050;47.324;18.792;2023-06-14T05:24:16;11.05;;;7.13;;
54143;SDS011;40050;47.324;18.792;2023-06-14T05:26:17;12.23;;;7.73;;
54143;SDS011;40050;47.324;18.792;2023-06-14T05:28:19;10.72;;;6.64;;
54143;SDS011;40050;47.324;18.792;2023-06-14T05:30:20;11.98;;;7.44;;
54143;SDS011;40050;47.324;18.792;2023-06-14T05:32:21;11.58;;;7.04;;
54143;SDS011;40050;47.324;18.792;2023-06-14T05:34:22;11.30;;;7.34;;
54143;SDS011;40050;47.324;18.792;2023-06-14T05:36:22;10.86;;;6.85;;
54143;SDS011;40050;47.324;18.792;2023-06-14T05:38:23;12.28;;;7.34;;
54143;SDS011;40050;47.324;18.792;2023-06-14T05:40:24;13.77;;;7.25;;
54143;SDS011;40050;47.324;18.792;2023-06-14T05:42:25;10.73;;;7.35;;
54143;SDS011;40050;47.324;18.792;2023-06-14T05:44:27;12.72;;;7.35;;
54143;SDS011;40050;47.324;18.792;2023-06-14T05:46:28;11.30;;;7.35;;
54143;SDS011;40050;47.324;18.792;2023-06-14T05:48:29;10.94;;;7.06;;
54143;SDS011;40050;47.324;18.792;2023-06-14T05:50:30;12.02;;;7.26;;
54143;SDS011;40050;47.324;18.792;2023-06-14T05:52:30;11.56;;;7.36;;
54143;SDS011;40050;47.324;18.792;2023-06-14T05:54:31;11.44;;;7.06;;
54143;SDS011;40050;47.324;18.792;2023-06-14T05:56:32;12.53;;;7.16;;
54143;SDS011;40050;47.324;18.792;2023-06-14T05:58:33;10.33;;;7.46;;
54143;SDS011;40050;47.324;18.792;2023-06-14T06:00:34;11.12;;;7.07;;
54143;SDS011;40050;47.324;18.792;2023-06-14T06:02:35;11.60;;;7.07;;
54143;SDS011;40050;47.324;18.792;2023-06-14T06:04:36;11.23;;;7.17;;
54143;SDS011;40050;47.324;18.792;2023-06-14T06:06:37;10.83;;;6.77;;
54143;SDS011;40050;47.324;18.792;2023-06-14T06:08:38;11.53;;;6.97;;
54143;SDS011;40050;47.324;18.792;2023-06-14T06:10:39;11.29;;;6.98;;
54143;SDS011;40050;47.324;18.792;2023-06-14T06:12:43;10.79;;;6.78;;
54143;SDS011;40050;47.324;18.792;2023-06-14T06:14:41;12.53;;;6.97;;
54143;SDS011;40050;47.324;18.792;2023-06-14T06:16:42;9.71;;;6.48;;
54143;SDS011;40050;47.324;18.792;2023-06-14T06:18:43;10.19;;;6.58;;
54143;SDS011;40050;47.324;18.792;2023-06-14T06:20:44;9.22;;;5.68;;
54143;SDS011;40050;47.324;18.792;2023-06-14T06:22:44;9.24;;;5.98;;
54143;SDS011;40050;47.324;18.792;2023-06-14T06:24:46;10.29;;;5.98;;
54143;SDS011;40050;47.324;18.792;2023-06-14T06:26:46;9.63;;;5.88;;
54143;SDS011;40050;47.324;18.792;2023-06-14T06:28:47;9.33;;;6.08;;
54143;SDS011;40050;47.324;18.792;2023-06-14T06:30:48;9.65;;;5.98;;
54143;SDS011;40050;47.324;18.792;2023-06-14T06:32:49;11.11;;;5.68;;
54143;SDS011;40050;47.324;18.792;2023-06-14T06:34:50;9.93;;;6.08;;
54143;SDS011;40050;47.324;18.792;2023-06-14T06:36:51;8.87;;;6.08;;
54143;SDS011;40050;47.324;18.792;2023-06-14T06:38:54;9.16;;;5.98;;
54143;SDS011;40050;47.324;18.792;2023-06-14T06:40:56;9.05;;;5.98;;
54143;SDS011;40050;47.324;18.792;2023-06-14T06:42:56;11.78;;;6.38;;
54143;SDS011;40050;47.324;18.792;2023-06-14T06:44:57;11.32;;;6.18;;
54143;SDS011;40050;47.324;18.792;2023-06-14T06:46:59;8.97;;;6.28;;
54143;SDS011;40050;47.324;18.792;2023-06-14T06:48:59;9.46;;;5.88;;
54143;SDS011;40050;47.324;18.792;2023-06-14T06:51:00;14.64;;;5.98;;
54143;SDS011;40050;47.324;18.792;2023-06-14T06:53:01;13.35;;;6.78;;
54143;SDS011;40050;47.324;18.792;2023-06-14T06:55:02;11.78;;;6.78;;
54143;SDS011;40050;47.324;18.792;2023-06-14T06:57:03;13.62;;;6.78;;
54143;SDS011;40050;47.324;18.792;2023-06-14T06:59:04;11.07;;;6.78;;
54143;SDS011;40050;47.324;18.792;2023-06-14T07:01:08;11.72;;;6.67;;
54143;SDS011;40050;47.324;18.792;2023-06-14T07:03:08;10.98;;;6.98;;
54143;SDS011;40050;47.324;18.792;2023-06-14T07:05:09;13.83;;;6.78;;
54143;SDS011;40050;47.324;18.792;2023-06-14T07:07:10;11.11;;;6.08;;
54143;SDS011;40050;47.324;18.792;2023-06-14T07:09:11;14.21;;;6.68;;
54143;SDS011;40050;47.324;18.792;2023-06-14T07:11:12;10.41;;;6.48;;
54143;SDS011;40050;47.324;18.792;2023-06-14T07:13:13;12.56;;;6.68;;
54143;SDS011;40050;47.324;18.792;2023-06-14T07:15:14;9.55;;;6.38;;
54143;SDS011;40050;47.324;18.792;2023-06-14T07:17:15;10.62;;;6.08;;
54143;SDS011;40050;47.324;18.792;2023-06-14T07:19:16;9.07;;;5.78;;
54143;SDS011;40050;47.324;18.792;2023-06-14T07:21:17;9.97;;;5.29;;
54143;SDS011;40050;47.324;18.792;2023-06-14T07:23:18;10.86;;;5.59;;
54143;SDS011;40050;47.324;18.792;2023-06-14T07:25:19;9.39;;;5.29;;
54143;SDS011;40050;47.324;18.792;2023-06-14T07:27:19;9.28;;;5.69;;
54143;SDS011;40050;47.324;18.792;2023-06-14T07:29:20;9.98;;;5.89;;
54143;SDS011;40050;47.324;18.792;2023-06-14T07:31:21;9.97;;;5.98;;
54143;SDS011;40050;47.324;18.792;2023-06-14T07:33:23;10.27;;;5.89;;
54143;SDS011;40050;47.324;18.792;2023-06-14T07:35:24;8.62;;;5.79;;
54143;SDS011;40050;47.324;18.792;2023-06-14T07:37:27;11.66;;;5.39;;
54143;SDS011;40050;47.324;18.792;2023-06-14T07:39:28;8.26;;;5.49;;
54143;SDS011;40050;47.324;18.792;2023-06-14T07:41:29;9.45;;;5.89;;
54143;SDS011;40050;47.324;18.792;2023-06-14T07:43:30;8.08;;;5.49;;
54143;SDS011;40050;47.324;18.792;2023-06-14T07:45:30;12.02;;;5.99;;
54143;SDS011;40050;47.324;18.792;2023-06-14T07:47:32;9.36;;;5.99;;
54143;SDS011;40050;47.324;18.792;2023-06-14T07:49:32;7.60;;;5.39;;
54143;SDS011;40050;47.324;18.792;2023-06-14T07:51:33;7.51;;;5.29;;
54143;SDS011;40050;47.324;18.792;2023-06-14T07:53:34;10.76;;;6.09;;
54143;SDS011;40050;47.324;18.792;2023-06-14T07:55:35;11.06;;;6.09;;
54143;SDS011;40050;47.324;18.792;2023-06-14T07:57:36;9.78;;;5.59;;
54143;SDS011;40050;47.324;18.792;2023-06-14T07:59:37;8.30;;;5.49;;
54143;SDS011;40050;47.324;18.792;2023-06-14T08:01:38;10.96;;;5.39;;
54143;SDS011;40050;47.324;18.792;2023-06-14T08:03:39;8.69;;;5.69;;
54143;SDS011;40050;47.324;18.792;2023-06-14T08:05:43;10.57;;;5.39;;
54143;SDS011;40050;47.324;18.792;2023-06-14T08:07:44;7.70;;;5.49;;
54143;SDS011;40050;47.324;18.792;2023-06-14T08:09:45;9.19;;;5.09;;
54143;SDS011;40050;47.324;18.792;2023-06-14T08:11:46;9.30;;;5.10;;
54143;SDS011;40050;47.324;18.792;2023-06-14T08:13:47;7.61;;;4.60;;
54143;SDS011;40050;47.324;18.792;2023-06-14T08:15:48;7.71;;;4.60;;
54143;SDS011;40050;47.324;18.792;2023-06-14T08:17:49;7.52;;;4.70;;
54143;SDS011;40050;47.324;18.792;2023-06-14T08:19:50;8.92;;;4.60;;
54143;SDS011;40050;47.324;18.792;2023-06-14T08:21:51;7.52;;;4.50;;
54143;SDS011;40050;47.324;18.792;2023-06-14T08:23:52;7.72;;;4.20;;
54143;SDS011;40050;47.324;18.792;2023-06-14T08:25:53;6.84;;;4.20;;
54143;SDS011;40050;47.324;18.792;2023-06-14T08:27:54;9.02;;;4.10;;
54143;SDS011;40050;47.324;18.792;2023-06-14T08:29:54;7.24;;;4.00;;
54143;SDS011;40050;47.324;18.792;2023-06-14T08:31:55;6.75;;;4.20;;
54143;SDS011;40050;47.324;18.792;2023-06-14T08:33:56;8.62;;;4.30;;
54143;SDS011;40050;47.324;18.792;2023-06-14T08:35:57;6.04;;;3.80;;
54143;SDS011;40050;47.324;18.792;2023-06-14T08:37:58;5.65;;;4.20;;
54143;SDS011;40050;47.324;18.792;2023-06-14T08:39:59;6.54;;;4.10;;
54143;SDS011;40050;47.324;18.792;2023-06-14T08:42:01;7.14;;;4.30;;
54143;SDS011;40050;47.324;18.792;2023-06-14T08:44:01;7.14;;;3.90;;
54143;SDS011;40050;47.324;18.792;2023-06-14T08:46:02;8.12;;;4.30;;
54143;SDS011;40050;47.324;18.792;2023-06-14T08:48:03;5.44;;;4.30;;
54143;SDS011;40050;47.324;18.792;2023-06-14T08:50:04;5.05;;;3.70;;
54143;SDS011;40050;47.324;18.792;2023-06-14T08:52:07;6.34;;;4.00;;
54143;SDS011;40050;47.324;18.792;2023-06-14T08:54:08;6.34;;;4.20;;
54143;SDS011;40050;47.324;18.792;2023-06-14T08:56:09;8.03;;;4.70;;
54143;SDS011;40050;47.324;18.792;2023-06-14T08:58:11;6.64;;;4.20;;
54143;SDS011;40050;47.324;18.792;2023-06-14T09:00:17;6.83;;;4.00;;
54143;SDS011;40050;47.324;18.792;2023-06-14T09:02:17;8.81;;;4.00;;
54143;SDS011;40050;47.324;18.792;2023-06-14T09:04:23;8.61;;;4.00;;
54143;SDS011;40050;47.324;18.792;2023-06-14T09:06:20;5.14;;;3.60;;
54143;SDS011;40050;47.324;18.792;2023-06-14T09:08:21;6.73;;;4.40;;
54143;SDS011;40050;47.324;18.792;2023-06-14T09:10:34;5.74;;;3.70;;
54143;SDS011;40050;47.324;18.792;2023-06-14T09:12:37;5.85;;;4.10;;
54143;SDS011;40050;47.324;18.792;2023-06-14T09:14:38;8.72;;;4.30;;
54143;SDS011;40050;47.324;18.792;2023-06-14T09:16:39;6.54;;;4.10;;
54143;SDS011;40050;47.324;18.792;2023-06-14T09:18:41;7.34;;;3.80;;
54143;SDS011;40050;47.324;18.792;2023-06-14T09:20:41;6.34;;;4.20;;
54143;SDS011;40050;47.324;18.792;2023-06-14T09:22:42;6.94;;;4.00;;
54143;SDS011;40050;47.324;18.792;2023-06-14T09:24:44;6.34;;;4.00;;
54143;SDS011;40050;47.324;18.792;2023-06-14T09:26:47;7.55;;;4.30;;
54143;SDS011;40050;47.324;18.792;2023-06-14T09:28:48;7.94;;;4.50;;
54143;SDS011;40050;47.324;18.792;2023-06-14T09:30:53;8.44;;;3.80;;
54143;SDS011;40050;47.324;18.792;2023-06-14T09:32:52;7.65;;;4.50;;
54143;SDS011;40050;47.324;18.792;2023-06-14T09:34:53;7.35;;;4.30;;
54143;SDS011;40050;47.324;18.792;2023-06-14T09:36:55;5.66;;;4.10;;
54143;SDS011;40050;47.324;18.792;2023-06-14T09:38:56;8.25;;;4.20;;
54143;SDS011;40050;47.324;18.792;2023-06-14T09:40:57;8.35;;;4.00;;
54143;SDS011;40050;47.324;18.792;2023-06-14T09:42:58;6.56;;;4.00;;
54143;SDS011;40050;47.324;18.792;2023-06-14T09:44:59;7.05;;;4.40;;
54143;SDS011;40050;47.324;18.792;2023-06-14T09:47:01;5.57;;;3.70;;
54143;SDS011;40050;47.324;18.792;2023-06-14T09:49:02;6.96;;;3.80;;
54143;SDS011;40050;47.324;18.792;2023-06-14T09:51:03;6.46;;;4.20;;
54143;SDS011;40050;47.324;18.792;2023-06-14T09:53:07;9.64;;;4.90;;
54143;SDS011;40050;47.324;18.792;2023-06-14T09:55:12;7.76;;;4.50;;
54143;SDS011;40050;47.324;18.792;2023-06-14T09:57:14;7.16;;;4.30;;
54143;SDS011;40050;47.324;18.792;2023-06-14T09:59:14;9.85;;;4.20;;
54143;SDS011;40050;47.324;18.792;2023-06-14T10:01:16;5.27;;;4.00;;
54143;SDS011;40050;47.324;18.792;2023-06-14T10:03:27;7.17;;;4.50;;
54143;SDS011;40050;47.324;18.792;2023-06-14T10:05:27;7.47;;;4.10;;
54143;SDS011;40050;47.324;18.792;2023-06-14T10:07:28;5.37;;;4.00;;
54143;SDS011;40050;47.324;18.792;2023-06-14T10:09:31;5.47;;;3.80;;
54143;SDS011;40050;47.324;18.792;2023-06-14T10:11:32;5.27;;;3.80;;
54143;SDS011;40050;47.324;18.792;2023-06-14T10:13:33;7.26;;;3.50;;
54143;SDS011;40050;47.324;18.792;2023-06-14T10:16:22;6.57;;;3.40;;
54143;SDS011;40050;47.324;18.792;2023-06-14T10:17:49;5.57;;;3.40;;
54143;SDS011;40050;47.324;18.792;2023-06-14T10:20:03;7.56;;;3.50;;
54143;SDS011;40050;47.324;18.792;2023-06-14T10:22:18;5.98;;;3.50;;
54143;SDS011;40050;47.324;18.792;2023-06-14T10:24:03;8.17;;;3.60;;
54143;SDS011;40050;47.324;18.792;2023-06-14T10:26:03;6.37;;;3.50;;
54143;SDS011;40050;47.324;18.792;2023-06-14T10:28:16;6.68;;;3.10;;
54143;SDS011;40050;47.324;18.792;2023-06-14T10:30:25;5.68;;;3.30;;
54143;SDS011;40050;47.324;18.792;2023-06-14T10:32:29;5.08;;;2.90;;
54143;SDS011;40050;47.324;18.792;2023-06-14T10:34:30;4.49;;;2.90;;
54143;SDS011;40050;47.324;18.792;2023-06-14T10:36:42;5.28;;;3.00;;
54143;SDS011;40050;47.324;18.792;2023-06-14T10:38:43;4.29;;;3.00;;
54143;SDS011;40050;47.324;18.792;2023-06-14T10:40:56;5.58;;;3.20;;
54143;SDS011;40050;47.324;18.792;2023-06-14T10:43:20;5.39;;;2.50;;
54143;SDS011;40050;47.324;18.792;2023-06-14T10:45:04;6.19;;;2.90;;
54143;SDS011;40050;47.324;18.792;2023-06-14T10:47:30;4.89;;;2.50;;
54143;SDS011;40050;47.324;18.792;2023-06-14T10:49:11;4.69;;;2.30;;
54143;SDS011;40050;47.324;18.792;2023-06-14T10:51:16;3.49;;;2.10;;
54143;SDS011;40050;47.324;18.792;2023-06-14T10:53:23;5.59;;;2.30;;
54143;SDS011;40050;47.324;18.792;2023-06-14T10:55:26;4.29;;;2.40;;
54143;SDS011;40050;47.324;18.792;2023-06-14T10:57:27;3.39;;;2.10;;
54143;SDS011;40050;47.324;18.792;2023-06-14T10:59:28;2.99;;;2.30;;
54143;SDS011;40050;47.324;18.792;2023-06-14T11:01:36;3.09;;;1.80;;
54143;SDS011;40050;47.324;18.792;2023-06-14T11:03:52;4.59;;;2.20;;
54143;SDS011;40050;47.324;18.792;2023-06-14T11:05:57;3.10;;;2.30;;
54143;SDS011;40050;47.324;18.792;2023-06-14T11:08:38;3.40;;;2.10;;
54143;SDS011;40050;47.324;18.792;2023-06-14T11:12:25;3.50;;;2.20;;
54143;SDS011;40050;47.324;18.792;2023-06-14T11:14:26;2.80;;;2.00;;
54143;SDS011;40050;47.324;18.792;2023-06-14T11:16:27;6.29;;;2.10;;
54143;SDS011;40050;47.324;18.792;2023-06-14T11:18:28;3.60;;;2.20;;
54143;SDS011;40050;47.324;18.792;2023-06-14T11:20:39;3.40;;;2.00;;
54143;SDS011;40050;47.324;18.792;2023-06-14T11:22:40;4.00;;;2.00;;
54143;SDS011;40050;47.324;18.792;2023-06-14T11:24:42;4.20;;;2.00;;
54143;SDS011;40050;47.324;18.792;2023-06-14T11:26:42;3.80;;;2.10;;
54143;SDS011;40050;47.324;18.792;2023-06-14T11:28:43;4.50;;;2.00;;
54143;SDS011;40050;47.324;18.792;2023-06-14T11:30:44;6.00;;;2.10;;
54143;SDS011;40050;47.324;18.792;2023-06-14T11:32:46;3.30;;;2.10;;
54143;SDS011;40050;47.324;18.792;2023-06-14T11:34:46;2.70;;;2.00;;
54143;SDS011;40050;47.324;18.792;2023-06-14T11:36:47;4.10;;;2.10;;
54143;SDS011;40050;47.324;18.792;2023-06-14T11:38:49;2.90;;;2.10;;
54143;SDS011;40050;47.324;18.792;2023-06-14T11:40:49;3.00;;;2.40;;
54143;SDS011;40050;47.324;18.792;2023-06-14T11:42:53;4.40;;;2.20;;
54143;SDS011;40050;47.324;18.792;2023-06-14T11:44:51;3.10;;;2.00;;
54143;SDS011;40050;47.324;18.792;2023-06-14T11:46:52;3.30;;;2.00;;
54143;SDS011;40050;47.324;18.792;2023-06-14T11:48:53;3.00;;;2.10;;
54143;SDS011;40050;47.324;18.792;2023-06-14T11:50:54;3.00;;;1.90;;
54143;SDS011;40050;47.324;18.792;2023-06-14T11:52:55;2.90;;;2.10;;
54143;SDS011;40050;47.324;18.792;2023-06-14T11:54:56;4.60;;;2.20;;
54143;SDS011;40050;47.324;18.792;2023-06-14T11:56:57;4.60;;;2.20;;
54143;SDS011;40050;47.324;18.792;2023-06-14T11:59:01;5.70;;;2.30;;
54143;SDS011;40050;47.324;18.792;2023-06-14T12:01:02;5.20;;;2.30;;